Time;durP1;ratioP1;P1;durP2;ratioP2;P2;SDS_P1;SDS_P2;PMS_P1;PMS_P2;Temp;Humidity;BMP_temperature;BMP_pressure;BME280_temperature;BME280_humidity;BME280_pressure;Samples;Min_cycle;Max_cycle;Signal;HPM_P1;HPM_P2
2020/12/31 00:01:48;;;;;;;11.95;7.30;;;5.40;84.90;;;;;;4996282;28;20056;-87
2020/12/31 00:04:16;;;;;;;8.93;6.10;;;5.40;84.70;;;;;;5005215;28;20022;-87
2020/12/31 00:06:42;;;;;;;7.35;5.47;;;5.40;84.60;;;;;;5002767;28;20032;-87
2020/12/31 00:09:08;;;;;;;8.27;5.30;;;5.30;84.50;;;;;;5015608;28;20023;-86
2020/12/31 00:11:33;;;;;;;7.53;4.40;;;5.30;84.60;;;;;;5011050;28;20026;-87
2020/12/31 00:13:59;;;;;;;6.22;4.38;;;5.40;84.70;;;;;;4987737;28;20045;-87
2020/12/31 00:16:25;;;;;;;6.30;4.70;;;5.30;84.70;;;;;;4987812;28;20525;-88
2020/12/31 00:18:50;;;;;;;6.18;3.75;;;5.30;84.70;;;;;;4991769;28;20033;-88
2020/12/31 00:21:16;;;;;;;7.15;4.13;;;5.30;84.70;;;;;;4989549;28;20027;-87
2020/12/31 00:23:41;;;;;;;6.40;4.38;;;5.30;84.70;;;;;;4989692;28;20102;-88
2020/12/31 00:26:07;;;;;;;5.18;3.80;;;5.30;84.60;;;;;;5003394;28;20030;-88
2020/12/31 00:28:33;;;;;;;5.20;3.83;;;5.40;84.60;;;;;;4990455;28;20022;-88
2020/12/31 00:30:59;;;;;;;4.45;3.22;;;5.40;84.60;;;;;;4997414;28;20033;-87
2020/12/31 00:33:24;;;;;;;4.43;3.00;;;5.50;84.60;;;;;;4980772;28;20515;-88
2020/12/31 00:35:57;;;;;;;6.00;3.45;;;5.40;84.60;;;;;;4984019;28;20113;-88
2020/12/31 00:38:23;;;;;;;5.10;3.33;;;5.40;84.60;;;;;;4981309;28;20035;-87
2020/12/31 00:40:52;;;;;;;5.07;3.50;;;5.40;84.60;;;;;;4979230;28;20022;-87
2020/12/31 00:43:18;;;;;;;6.25;4.80;;;5.40;84.50;;;;;;4985589;28;20065;-87
2020/12/31 00:45:43;;;;;;;6.55;4.35;;;5.40;84.50;;;;;;4972352;28;20476;-87
2020/12/31 00:48:09;;;;;;;7.10;5.18;;;5.30;84.40;;;;;;4982531;28;20029;-86
2020/12/31 00:50:35;;;;;;;5.80;4.32;;;5.40;84.50;;;;;;4983894;28;20031;-86
2020/12/31 00:53:02;;;;;;;5.85;4.05;;;5.30;84.50;;;;;;4988537;28;20058;-87
2020/12/31 00:55:27;;;;;;;4.88;3.47;;;5.30;84.60;;;;;;4984587;28;20054;-87
2020/12/31 00:57:53;;;;;;;4.82;3.50;;;5.30;84.60;;;;;;4983513;28;20061;-87
2020/12/31 01:00:18;;;;;;;7.70;6.10;;;5.30;85.20;;;;;;4982908;28;20030;-87
2020/12/31 01:02:44;;;;;;;6.10;4.30;;;5.30;84.50;;;;;;5000683;28;20057;-86
2020/12/31 01:05:11;;;;;;;5.47;3.60;;;5.30;84.60;;;;;;4990558;28;20468;-86
2020/12/31 01:07:37;;;;;;;5.20;3.55;;;5.30;84.70;;;;;;4978170;28;20041;-86
2020/12/31 01:10:05;;;;;;;7.03;4.80;;;5.40;84.70;;;;;;4972181;28;20035;-86
2020/12/31 01:12:31;;;;;;;5.60;3.70;;;5.30;84.60;;;;;;4977861;28;20039;-87
2020/12/31 01:14:57;;;;;;;4.45;3.10;;;5.30;84.70;;;;;;4973079;28;20026;-86
2020/12/31 01:17:25;;;;;;;4.80;3.63;;;5.40;84.70;;;;;;4983944;28;20108;-87
2020/12/31 01:19:51;;;;;;;4.60;3.15;;;5.50;84.70;;;;;;4976719;28;20038;-86
2020/12/31 01:22:17;;;;;;;4.53;3.15;;;5.40;84.70;;;;;;4984230;28;20061;-86
2020/12/31 01:24:42;;;;;;;3.38;2.53;;;5.30;84.60;;;;;;4982205;28;20051;-86
2020/12/31 01:27:08;;;;;;;5.43;3.83;;;5.30;84.70;;;;;;4976720;28;20025;-86
2020/12/31 01:29:34;;;;;;;5.90;4.30;;;5.30;84.60;;;;;;4981783;28;20023;-87
2020/12/31 01:31:59;;;;;;;5.25;3.85;;;5.30;84.60;;;;;;4974247;28;20019;-87
2020/12/31 01:34:25;;;;;;;8.10;6.28;;;5.30;84.70;;;;;;4979823;28;20531;-87
2020/12/31 01:36:54;;;;;;;6.40;4.32;;;5.20;84.70;;;;;;4977115;28;20038;-86
2020/12/31 01:39:22;;;;;;;3.95;2.97;;;5.20;84.90;;;;;;4976135;28;20433;-86
2020/12/31 01:41:49;;;;;;;5.25;3.80;;;5.20;85.00;;;;;;4978632;28;20495;-85
2020/12/31 01:44:15;;;;;;;4.45;3.72;;;5.20;84.90;;;;;;4984121;28;20019;-86
2020/12/31 01:46:45;;;;;;;5.07;3.10;;;5.20;85.00;;;;;;4972430;28;20030;-86
2020/12/31 01:49:13;;;;;;;7.03;4.88;;;5.20;85.00;;;;;;4986012;28;20023;-87
2020/12/31 01:51:41;;;;;;;6.63;4.40;;;5.20;84.90;;;;;;4986518;28;20632;-87
2020/12/31 01:54:08;;;;;;;7.55;5.00;;;5.20;85.00;;;;;;4980166;28;20041;-87
2020/12/31 01:56:35;;;;;;;4.38;3.50;;;5.10;85.00;;;;;;4977637;28;20050;-86
2020/12/31 01:59:01;;;;;;;4.75;3.75;;;5.20;85.20;;;;;;4975477;28;20030;-86
2020/12/31 02:01:27;;;;;;;11.68;7.10;;;5.20;85.20;;;;;;4987362;28;20094;-88
2020/12/31 02:03:54;;;;;;;5.80;4.38;;;5.10;85.10;;;;;;4979772;28;20026;-88
2020/12/31 02:06:23;;;;;;;6.60;4.07;;;5.10;85.20;;;;;;4977067;28;20066;-87
2020/12/31 02:08:51;;;;;;;6.38;4.00;;;5.10;85.20;;;;;;4984132;28;20035;-87
2020/12/31 02:11:18;;;;;;;5.38;4.50;;;5.10;85.20;;;;;;4970702;28;20397;-87
2020/12/31 02:13:45;;;;;;;7.95;5.80;;;5.10;85.20;;;;;;4983105;28;20097;-87
2020/12/31 02:16:16;;;;;;;7.72;4.57;;;5.10;85.20;;;;;;4977603;28;20031;-85
2020/12/31 02:18:58;;;;;;;3.70;3.08;;;5.10;85.60;;;;;;4991823;28;20113;-86
2020/12/31 02:21:29;;;;;;;9.43;7.57;;;5.10;85.40;;;;;;4990278;28;20030;-87
2020/12/31 02:23:56;;;;;;;5.97;4.47;;;5.10;85.30;;;;;;4974542;28;20041;-88
2020/12/31 02:26:24;;;;;;;9.18;6.28;;;5.00;85.30;;;;;;4981294;28;20074;-88
2020/12/31 02:28:51;;;;;;;6.93;4.90;;;5.00;85.40;;;;;;4973507;28;20121;-87
2020/12/31 02:31:16;;;;;;;6.82;5.43;;;4.90;85.40;;;;;;4993023;28;20023;-87
2020/12/31 02:33:44;;;;;;;8.52;6.65;;;5.00;85.60;;;;;;4996290;28;20099;-87
2020/12/31 02:36:12;;;;;;;5.75;4.47;;;4.90;85.50;;;;;;4987382;28;20107;-85
2020/12/31 02:38:38;;;;;;;10.32;8.02;;;4.90;85.70;;;;;;4985393;28;20030;-86
2020/12/31 02:41:03;;;;;;;9.32;7.05;;;5.00;85.60;;;;;;4981422;28;20034;-86
2020/12/31 02:43:29;;;;;;;5.20;3.83;;;5.00;85.60;;;;;;4980789;28;20026;-86
2020/12/31 02:45:55;;;;;;;12.18;9.90;;;5.00;85.70;;;;;;4978010;28;20088;-86
2020/12/31 02:48:20;;;;;;;9.20;7.15;;;5.10;85.60;;;;;;4991688;28;20022;-86
2020/12/31 02:50:46;;;;;;;7.25;5.88;;;5.00;85.60;;;;;;4984182;28;20030;-86
2020/12/31 02:53:11;;;;;;;7.18;5.53;;;5.10;85.70;;;;;;4977383;28;20050;-86
2020/12/31 02:55:37;;;;;;;7.68;6.25;;;5.10;85.60;;;;;;4990499;28;20030;-86
2020/12/31 02:58:02;;;;;;;8.13;6.05;;;5.10;85.60;;;;;;4976534;28;20034;-87
2020/12/31 03:00:28;;;;;;;6.80;5.60;;;5.00;85.50;;;;;;4986950;28;20026;-85
2020/12/31 03:02:54;;;;;;;9.38;7.32;;;5.00;85.60;;;;;;4976112;28;20121;-86
2020/12/31 03:05:19;;;;;;;6.78;4.63;;;5.00;85.60;;;;;;4985147;28;20081;-86
2020/12/31 03:07:45;;;;;;;6.78;4.30;;;5.00;85.70;;;;;;4977181;28;20502;-86
2020/12/31 03:10:11;;;;;;;5.65;4.22;;;5.10;85.70;;;;;;4986175;28;20022;-85
2020/12/31 03:12:37;;;;;;;6.10;4.28;;;5.10;85.70;;;;;;5013710;28;20086;-87
2020/12/31 03:15:11;;;;;;;7.93;6.00;;;5.20;85.70;;;;;;5004536;28;20049;-87
2020/12/31 03:17:38;;;;;;;7.85;5.63;;;5.20;85.60;;;;;;4980670;28;20042;-86
2020/12/31 03:20:04;;;;;;;8.18;6.30;;;5.10;85.50;;;;;;4985441;28;20090;-87
2020/12/31 03:22:30;;;;;;;8.93;6.95;;;5.10;85.60;;;;;;5008244;28;20026;-86
2020/12/31 03:24:56;;;;;;;7.70;6.15;;;5.00;85.50;;;;;;5005878;28;20404;-87
2020/12/31 03:27:22;;;;;;;6.15;5.03;;;5.00;85.70;;;;;;4979678;28;20071;-87
2020/12/31 03:29:48;;;;;;;8.25;6.65;;;5.00;85.80;;;;;;4988328;28;20026;-87
2020/12/31 03:32:14;;;;;;;6.07;4.50;;;5.00;85.80;;;;;;4984163;28;20088;-85
2020/12/31 03:34:40;;;;;;;7.15;5.57;;;5.00;85.80;;;;;;4983592;28;20038;-85
2020/12/31 03:37:05;;;;;;;6.72;5.35;;;5.00;85.80;;;;;;4986737;28;20614;-84
2020/12/31 03:39:31;;;;;;;5.38;4.45;;;5.00;85.80;;;;;;4994012;28;20502;-85
2020/12/31 03:41:56;;;;;;;7.57;5.75;;;5.00;86.50;;;;;;4983065;28;20033;-86
2020/12/31 03:44:22;;;;;;;7.05;5.25;;;5.10;85.80;;;;;;4993495;28;20093;-85
2020/12/31 03:46:48;;;;;;;6.43;5.32;;;5.10;85.80;;;;;;4985782;28;20502;-86
2020/12/31 03:49:13;;;;;;;6.43;5.50;;;5.10;85.80;;;;;;4978677;28;20022;-87
2020/12/31 03:51:39;;;;;;;5.28;4.40;;;5.10;85.80;;;;;;4991958;28;20570;-86
2020/12/31 03:54:04;;;;;;;5.75;4.75;;;5.20;85.70;;;;;;4977767;28;20074;-86
2020/12/31 03:56:30;;;;;;;5.00;3.88;;;5.10;86.40;;;;;;4991955;28;20109;-86
2020/12/31 03:58:55;;;;;;;3.15;2.67;;;5.10;85.80;;;;;;4988653;28;20557;-88
2020/12/31 04:01:28;;;;;;;5.65;4.22;;;5.20;85.80;;;;;;4995231;28;20040;-87
2020/12/31 04:03:53;;;;;;;4.60;3.88;;;5.20;86.40;;;;;;4992479;28;20231;-86
2020/12/31 04:06:19;;;;;;;5.25;4.07;;;5.20;85.70;;;;;;4977999;28;20097;-88
2020/12/31 04:08:44;;;;;;;7.45;6.00;;;5.20;85.70;;;;;;4986064;28;20054;-88
2020/12/31 04:11:10;;;;;;;4.70;4.00;;;5.10;85.60;;;;;;4992389;28;20078;-88
2020/12/31 04:13:36;;;;;;;3.72;3.13;;;5.10;85.70;;;;;;4979636;28;20039;-88
2020/12/31 04:16:01;;;;;;;5.45;4.18;;;5.10;85.60;;;;;;4974921;28;20498;-88
2020/12/31 04:18:27;;;;;;;5.95;4.40;;;5.10;85.60;;;;;;4977564;28;20518;-88
2020/12/31 04:20:52;;;;;;;3.55;3.20;;;5.10;85.60;;;;;;4985784;28;20031;-88
2020/12/31 04:23:18;;;;;;;7.30;5.70;;;5.20;85.60;;;;;;4989403;28;20512;-89
2020/12/31 04:25:43;;;;;;;5.20;4.40;;;5.10;85.50;;;;;;4988813;28;20073;-88
2020/12/31 04:28:09;;;;;;;5.10;4.38;;;5.00;85.40;;;;;;4982605;28;20628;-88
2020/12/31 04:30:34;;;;;;;5.45;4.20;;;4.90;86.00;;;;;;4975819;28;20455;-88
2020/12/31 04:33:00;;;;;;;5.38;3.67;;;4.90;85.60;;;;;;4981624;28;20046;-89
2020/12/31 04:35:26;;;;;;;4.53;3.90;;;4.90;85.60;;;;;;4992898;28;20075;-88
2020/12/31 04:37:51;;;;;;;6.95;4.93;;;4.90;85.70;;;;;;4984695;28;20035;-89
2020/12/31 04:40:17;;;;;;;5.13;4.20;;;4.90;85.60;;;;;;4983517;28;20030;-88
2020/12/31 04:42:43;;;;;;;6.30;4.90;;;4.90;85.60;;;;;;4981914;28;20030;-88
2020/12/31 04:45:09;;;;;;;4.63;3.13;;;4.90;85.60;;;;;;4986784;28;20642;-88
2020/12/31 04:47:50;;;;;;;4.47;3.80;;;4.90;85.70;;;;;;4974659;28;20031;-88
2020/12/31 04:50:20;;;;;;;3.25;2.88;;;5.00;85.70;;;;;;4987301;28;20034;-88
2020/12/31 04:52:47;;;;;;;6.53;5.05;;;5.00;85.70;;;;;;4979891;28;20141;-89
2020/12/31 04:55:13;;;;;;;4.97;3.50;;;4.90;85.50;;;;;;4984444;28;20117;-88
2020/12/31 04:57:39;;;;;;;3.42;2.90;;;4.90;85.60;;;;;;4991973;28;20034;-89
2020/12/31 05:00:04;;;;;;;3.45;2.60;;;4.90;85.60;;;;;;4982250;28;20233;-88
2020/12/31 05:02:30;;;;;;;5.40;3.53;;;5.00;85.70;;;;;;4989553;28;20030;-88
2020/12/31 05:04:59;;;;;;;4.68;3.55;;;5.00;85.60;;;;;;4989164;28;20030;-89
2020/12/31 05:07:26;;;;;;;5.95;4.68;;;4.90;85.60;;;;;;4983209;28;20026;-88
2020/12/31 05:10:11;;;;;;;4.03;2.97;;;4.90;85.50;;;;;;4981385;28;20058;-88
2020/12/31 05:12:36;;;;;;;3.45;2.97;;;4.80;85.60;;;;;;4981203;28;20069;-88
2020/12/31 05:15:02;;;;;;;5.57;4.40;;;4.90;85.70;;;;;;5003148;28;20042;-88
2020/12/31 05:17:30;;;;;;;5.18;4.00;;;4.90;85.60;;;;;;4986275;28;20026;-87
2020/12/31 05:19:56;;;;;;;3.92;3.03;;;4.80;85.60;;;;;;4976168;28;20026;-88
2020/12/31 05:22:23;;;;;;;4.80;3.60;;;4.90;85.80;;;;;;4983462;28;20077;-88
2020/12/31 05:24:50;;;;;;;4.95;3.90;;;5.00;85.70;;;;;;4982975;28;20038;-87
2020/12/31 05:27:27;;;;;;;4.18;3.35;;;5.00;85.70;;;;;;4988182;28;20018;-87
2020/12/31 05:29:55;;;;;;;4.43;3.20;;;4.90;85.60;;;;;;4989531;28;20037;-88
2020/12/31 05:32:22;;;;;;;3.03;2.65;;;4.90;85.60;;;;;;4998795;28;20017;-88
2020/12/31 05:34:48;;;;;;;3.70;2.90;;;5.00;85.70;;;;;;4986584;28;20042;-89
2020/12/31 05:37:14;;;;;;;5.00;3.30;;;5.00;85.60;;;;;;4989992;28;21954;-89
2020/12/31 05:39:55;;;;;;;4.88;3.25;;;5.00;85.60;;;;;;4984308;28;20099;-89
2020/12/31 05:42:22;;;;;;;3.75;3.10;;;5.00;85.60;;;;;;4992876;28;20034;-89
2020/12/31 05:45:14;;;;;;;3.80;3.15;;;5.10;85.60;;;;;;4984908;28;20168;-87
2020/12/31 05:47:51;;;;;;;3.45;2.85;;;5.10;85.60;;;;;;4985577;28;20042;-87
2020/12/31 05:50:31;;;;;;;4.18;3.13;;;5.10;86.20;;;;;;5006488;28;20074;-89
2020/12/31 05:52:57;;;;;;;5.85;4.60;;;5.10;85.60;;;;;;5001569;28;20106;-89
2020/12/31 05:55:25;;;;;;;4.35;3.45;;;5.10;85.20;;;;;;5005104;28;20029;-89
2020/12/31 05:57:56;;;;;;;3.88;3.00;;;4.90;85.20;;;;;;4994404;28;20034;-88
2020/12/31 06:00:27;;;;;;;2.20;1.92;;;4.90;85.30;;;;;;4988572;28;20027;-88
2020/12/31 06:02:54;;;;;;;4.18;3.35;;;5.00;85.50;;;;;;4989600;28;20049;-88
2020/12/31 06:05:20;;;;;;;5.45;4.22;;;4.90;85.30;;;;;;5017014;28;20014;-87
2020/12/31 06:07:53;;;;;;;5.13;3.28;;;4.90;85.30;;;;;;5006360;28;20007;-89
2020/12/31 06:10:30;;;;;;;3.40;3.10;;;4.80;85.20;;;;;;5008584;28;20030;-89
2020/12/31 06:13:00;;;;;;;3.35;2.40;;;4.90;85.30;;;;;;4982362;28;20396;-88
2020/12/31 06:15:30;;;;;;;3.47;2.70;;;4.90;85.40;;;;;;4979526;28;20034;-88
2020/12/31 06:17:57;;;;;;;3.10;2.28;;;4.90;85.30;;;;;;4990746;28;20051;-86
2020/12/31 06:20:24;;;;;;;4.38;3.67;;;4.90;85.40;;;;;;4983458;28;20030;-86
2020/12/31 06:23:03;;;;;;;3.70;2.85;;;4.90;85.30;;;;;;4979236;28;20476;-86
2020/12/31 06:25:38;;;;;;;2.05;1.80;;;4.80;85.30;;;;;;4987108;28;20026;-86
2020/12/31 06:28:06;;;;;;;2.67;2.10;;;4.80;85.40;;;;;;4977447;28;20259;-87
2020/12/31 06:30:33;;;;;;;2.35;2.08;;;4.90;85.40;;;;;;4982206;28;20015;-86
2020/12/31 06:33:03;;;;;;;3.20;2.50;;;4.90;86.00;;;;;;4984098;28;20035;-86
2020/12/31 06:35:32;;;;;;;3.35;2.80;;;4.90;85.30;;;;;;4994788;28;20539;-87
2020/12/31 06:37:58;;;;;;;3.47;2.60;;;4.90;85.20;;;;;;4985514;28;20110;-87
2020/12/31 06:40:25;;;;;;;8.20;2.85;;;4.80;85.20;;;;;;4987106;28;20030;-86
2020/12/31 06:43:11;;;;;;;3.50;2.95;;;4.80;85.10;;;;;;4996157;28;20123;-87
2020/12/31 06:45:38;;;;;;;2.45;2.17;;;4.90;85.20;;;;;;4990706;28;20046;-86
2020/12/31 06:48:25;;;;;;;3.85;3.17;;;5.00;85.30;;;;;;4991982;28;20030;-86
2020/12/31 06:51:11;;;;;;;3.20;2.55;;;4.80;85.10;;;;;;4976756;28;20030;-87
2020/12/31 06:53:46;;;;;;;3.35;2.88;;;4.80;85.20;;;;;;4977258;28;20085;-87
2020/12/31 06:56:13;;;;;;;4.43;3.00;;;4.80;85.10;;;;;;4988743;28;20026;-86
2020/12/31 06:58:40;;;;;;;3.10;2.13;;;4.80;85.10;;;;;;4980495;28;20575;-86
2020/12/31 07:01:25;;;;;;;3.53;2.70;;;4.80;85.20;;;;;;4995851;28;20105;-85
2020/12/31 07:03:52;;;;;;;4.05;2.20;;;4.80;85.10;;;;;;5006533;28;20034;-85
2020/12/31 07:06:20;;;;;;;4.28;2.78;;;4.90;85.20;;;;;;4986816;28;20079;-85
2020/12/31 07:08:51;;;;;;;2.50;2.15;;;4.90;85.10;;;;;;4988861;28;20045;-85
2020/12/31 07:11:38;;;;;;;2.40;2.05;;;4.90;85.10;;;;;;4988993;28;20033;-85
2020/12/31 07:14:22;;;;;;;1.98;1.77;;;4.90;85.00;;;;;;5004508;28;20038;-85
2020/12/31 07:16:54;;;;;;;2.53;1.90;;;4.90;85.10;;;;;;5010677;28;20026;-86
2020/12/31 07:19:31;;;;;;;4.68;3.42;;;5.00;85.20;;;;;;4994739;28;20034;-87
2020/12/31 07:21:57;;;;;;;4.97;2.60;;;4.90;85.00;;;;;;4984811;28;20019;-86
2020/12/31 07:24:27;;;;;;;1.60;1.45;;;4.90;84.90;;;;;;5003047;28;20050;-85
2020/12/31 07:26:58;;;;;;;2.85;2.03;;;4.90;85.00;;;;;;4994436;28;20492;-85
2020/12/31 07:29:33;;;;;;;2.20;1.63;;;4.90;85.00;;;;;;4980543;28;20058;-85
2020/12/31 07:32:01;;;;;;;3.22;2.67;;;4.90;85.00;;;;;;4985235;28;20099;-86
2020/12/31 07:34:29;;;;;;;4.82;3.05;;;4.90;84.90;;;;;;4992808;28;20039;-86
2020/12/31 07:37:03;;;;;;;2.95;2.20;;;4.90;84.80;;;;;;4984779;28;20019;-85
2020/12/31 07:39:30;;;;;;;2.88;1.88;;;4.90;84.90;;;;;;4981410;28;21244;-85
2020/12/31 07:42:16;;;;;;;3.33;2.40;;;4.90;84.80;;;;;;4982506;28;20022;-85
2020/12/31 07:44:49;;;;;;;3.03;2.28;;;4.90;84.70;;;;;;4984061;28;20038;-85
2020/12/31 07:47:17;;;;;;;3.00;2.38;;;4.90;84.70;;;;;;4978376;28;20022;-86
2020/12/31 07:49:47;;;;;;;3.20;2.50;;;4.90;84.60;;;;;;4960971;28;20031;-86
2020/12/31 07:52:14;;;;;;;5.03;2.85;;;4.90;84.60;;;;;;4979767;28;20027;-85
2020/12/31 07:54:40;;;;;;;4.95;2.30;;;4.80;84.40;;;;;;4988103;28;20078;-89
2020/12/31 07:57:12;;;;;;;3.05;2.25;;;4.80;84.50;;;;;;4981670;28;20057;-89
2020/12/31 07:59:45;;;;;;;3.90;2.60;;;4.90;84.60;;;;;;4989115;28;20546;-85
2020/12/31 08:02:15;;;;;;;2.20;1.90;;;4.90;84.60;;;;;;4983760;28;20455;-86
2020/12/31 08:04:42;;;;;;;3.95;2.72;;;4.90;84.50;;;;;;4973757;28;20118;-85
2020/12/31 08:07:17;;;;;;;2.67;2.20;;;5.00;84.50;;;;;;4982336;28;20030;-85
2020/12/31 08:09:43;;;;;;;2.33;1.80;;;4.90;84.50;;;;;;4988727;28;20027;-86
2020/12/31 08:12:10;;;;;;;3.03;2.40;;;4.90;84.50;;;;;;4981994;28;20018;-85
2020/12/31 08:14:49;;;;;;;3.67;2.10;;;4.90;84.30;;;;;;4992735;28;20026;-84
2020/12/31 08:17:15;;;;;;;2.03;1.80;;;4.90;84.30;;;;;;4975923;28;20480;-85
2020/12/31 08:19:41;;;;;;;2.42;1.80;;;4.80;84.30;;;;;;4981283;28;20054;-91
2020/12/31 08:22:41;;;;;;;2.08;1.73;;;4.80;84.20;;;;;;4981965;28;20055;-87
2020/12/31 08:25:12;;;;;;;1.40;1.30;;;4.90;84.20;;;;;;4973416;28;20038;-84
2020/12/31 08:27:39;;;;;;;2.40;1.60;;;4.90;84.20;;;;;;4977152;28;20022;-86
2020/12/31 08:30:09;;;;;;;1.50;1.40;;;4.80;84.10;;;;;;4991433;28;20018;-87
2020/12/31 08:32:52;;;;;;;2.05;1.40;;;4.90;84.10;;;;;;4996465;28;20023;-90
2020/12/31 08:35:24;;;;;;;1.85;1.40;;;5.00;84.10;;;;;;4987673;28;20147;-93
2020/12/31 08:38:13;;;;;;;2.23;1.53;;;5.00;84.10;;;;;;4982805;28;20469;-88
2020/12/31 08:40:40;;;;;;;1.58;1.38;;;5.00;84.00;;;;;;4983031;28;20274;-86
2020/12/31 08:43:16;;;;;;;1.90;1.70;;;5.00;84.00;;;;;;4988976;28;20554;-86
2020/12/31 08:45:41;;;;;;;1.60;1.42;;;4.90;83.80;;;;;;4988502;28;20027;-87
2020/12/31 08:48:11;;;;;;;2.63;1.83;;;4.90;83.80;;;;;;4985926;28;20061;-87
2020/12/31 08:50:37;;;;;;;1.90;1.67;;;5.00;83.90;;;;;;4979539;28;20053;-88
2020/12/31 08:53:48;;;;;;;2.72;1.65;;;4.80;83.80;;;;;;4988925;28;20278;-90
2020/12/31 08:56:14;;;;;;;1.58;1.48;;;4.80;84.00;;;;;;4985461;28;20081;-88
2020/12/31 08:58:40;;;;;;;3.22;2.15;;;4.70;84.00;;;;;;4986820;28;20105;-87
2020/12/31 09:01:06;;;;;;;2.30;1.45;;;4.50;84.10;;;;;;4984382;28;20113;-91
2020/12/31 09:03:32;;;;;;;2.78;1.98;;;4.60;84.50;;;;;;4976352;28;20081;-92
2020/12/31 09:06:00;;;;;;;3.10;2.40;;;4.70;84.60;;;;;;4988069;28;20023;-95
2020/12/31 09:08:27;;;;;;;3.13;2.05;;;4.60;84.50;;;;;;4988124;28;20041;-95
2020/12/31 09:11:01;;;;;;;2.22;1.70;;;4.60;84.60;;;;;;4986887;28;20034;-96
2020/12/31 09:13:27;;;;;;;2.47;2.10;;;4.70;84.70;;;;;;4993227;28;20050;-95
2020/12/31 09:16:10;;;;;;;1.67;1.58;;;4.60;84.70;;;;;;4985591;28;20026;-92
2020/12/31 09:18:36;;;;;;;1.67;1.50;;;4.70;84.90;;;;;;4990482;28;20046;-93
2020/12/31 09:21:01;;;;;;;1.90;1.70;;;4.70;84.80;;;;;;5001933;28;20744;-92
2020/12/31 09:23:27;;;;;;;1.70;1.60;;;4.70;84.80;;;;;;4991460;28;20088;-93
2020/12/31 09:25:53;;;;;;;1.50;1.40;;;4.70;84.70;;;;;;4995165;28;20026;-94
2020/12/31 09:28:19;;;;;;;1.60;1.50;;;4.60;84.80;;;;;;4993008;28;20026;-92
2020/12/31 09:30:46;;;;;;;1.58;1.48;;;4.70;84.80;;;;;;4996239;28;20026;-91
2020/12/31 09:33:18;;;;;;;1.50;1.40;;;4.70;84.80;;;;;;4986726;28;20048;-91
2020/12/31 09:35:45;;;;;;;2.10;1.90;;;4.80;84.70;;;;;;4982336;28;20043;-90
2020/12/31 09:38:16;;;;;;;2.28;1.70;;;4.80;84.60;;;;;;5000272;28;20023;-92
2020/12/31 09:40:44;;;;;;;2.22;1.75;;;4.80;84.60;;;;;;5004761;28;20081;-89
2020/12/31 09:43:10;;;;;;;3.92;2.20;;;4.80;84.60;;;;;;4998179;28;20041;-89
2020/12/31 09:45:38;;;;;;;2.63;2.13;;;4.90;84.60;;;;;;4999485;28;20042;-91
2020/12/31 09:48:05;;;;;;;2.17;1.80;;;4.90;84.70;;;;;;4998672;28;20030;-91
2020/12/31 09:50:31;;;;;;;1.88;1.75;;;4.90;84.70;;;;;;4993623;28;20027;-89
2020/12/31 09:52:58;;;;;;;3.65;2.95;;;4.80;84.40;;;;;;4993707;28;20387;-91
2020/12/31 09:55:25;;;;;;;3.47;2.30;;;4.90;84.30;;;;;;4989700;28;20018;-89
2020/12/31 09:57:51;;;;;;;2.30;2.10;;;4.80;84.40;;;;;;4997667;28;20030;-91
2020/12/31 10:00:17;;;;;;;2.15;1.83;;;4.70;84.40;;;;;;5007158;28;20014;-93
2020/12/31 10:02:43;;;;;;;2.10;1.80;;;4.70;84.60;;;;;;4992641;28;20113;-89
2020/12/31 10:05:08;;;;;;;2.60;2.33;;;4.70;84.70;;;;;;4980333;28;20484;-90
2020/12/31 10:07:34;;;;;;;2.60;2.08;;;4.70;84.80;;;;;;4981702;28;20138;-89
2020/12/31 10:10:00;;;;;;;3.15;2.08;;;4.70;84.80;;;;;;4983198;28;20642;-88
2020/12/31 10:12:26;;;;;;;2.05;1.90;;;4.70;84.60;;;;;;4980425;28;20066;-90
2020/12/31 10:14:53;;;;;;;2.20;2.00;;;4.70;84.70;;;;;;4982242;28;20050;-86
2020/12/31 10:17:19;;;;;;;2.67;2.00;;;4.70;84.70;;;;;;4983642;28;20029;-88
2020/12/31 10:19:45;;;;;;;2.58;2.08;;;4.70;84.60;;;;;;4981769;28;20487;-87
2020/12/31 10:22:12;;;;;;;2.90;2.50;;;4.90;84.60;;;;;;4982808;28;20019;-89
2020/12/31 10:24:39;;;;;;;2.72;2.53;;;4.80;84.50;;;;;;4976835;28;20050;-88
2020/12/31 10:27:05;;;;;;;3.05;2.75;;;4.80;84.20;;;;;;4976608;28;20062;-87
2020/12/31 10:29:30;;;;;;;2.30;2.00;;;4.80;84.10;;;;;;4975429;28;20019;-91
2020/12/31 10:31:56;;;;;;;2.67;2.30;;;4.90;84.10;;;;;;4979599;28;20030;-88
2020/12/31 10:34:24;;;;;;;1.33;1.23;;;4.90;84.10;;;;;;4981043;28;20376;-93
2020/12/31 10:36:57;;;;;;;2.42;1.90;;;5.00;84.00;;;;;;4989316;28;20046;-92
2020/12/31 10:39:25;;;;;;;1.80;1.60;;;4.90;83.90;;;;;;4986390;28;20401;-92
2020/12/31 10:41:52;;;;;;;2.38;1.75;;;5.00;83.90;;;;;;4981367;28;20011;-88
2020/12/31 10:44:18;;;;;;;2.35;2.00;;;4.90;83.70;;;;;;4984256;28;20022;-88
2020/12/31 10:46:45;;;;;;;2.15;1.92;;;4.90;83.70;;;;;;5001315;28;20507;-89
2020/12/31 10:49:12;;;;;;;2.65;2.00;;;4.70;84.00;;;;;;5014789;28;20074;-91
2020/12/31 10:51:41;;;;;;;1.40;1.25;;;4.90;84.30;;;;;;4998688;28;20029;-88
2020/12/31 10:54:07;;;;;;;2.22;1.70;;;4.90;84.20;;;;;;4999714;28;20546;-89
2020/12/31 10:56:36;;;;;;;1.45;1.35;;;5.00;84.20;;;;;;5024021;28;20018;-91
2020/12/31 10:59:02;;;;;;;1.90;1.70;;;5.00;84.10;;;;;;5008789;28;20047;-91
2020/12/31 11:01:28;;;;;;;2.30;2.05;;;5.00;84.10;;;;;;5003533;28;20534;-90
2020/12/31 11:03:54;;;;;;;2.15;1.95;;;5.00;84.00;;;;;;5015164;28;20026;-90
2020/12/31 11:06:22;;;;;;;2.80;2.28;;;5.10;84.00;;;;;;5006389;28;20023;-87
2020/12/31 11:08:48;;;;;;;2.83;2.42;;;5.00;84.00;;;;;;5002228;28;20169;-86
2020/12/31 11:11:22;;;;;;;2.17;1.98;;;5.20;84.10;;;;;;4985304;28;20029;-88
2020/12/31 11:13:48;;;;;;;2.22;2.00;;;5.20;84.10;;;;;;5000724;28;20103;-88
2020/12/31 11:16:14;;;;;;;1.63;1.50;;;5.20;84.00;;;;;;5018566;28;20093;-86
2020/12/31 11:18:41;;;;;;;2.95;2.40;;;5.30;83.90;;;;;;5011536;28;20086;-86
2020/12/31 11:21:08;;;;;;;3.05;2.13;;;5.40;83.80;;;;;;4992356;28;20030;-87
2020/12/31 11:23:34;;;;;;;3.00;2.70;;;5.50;83.70;;;;;;4998380;28;20042;-88
2020/12/31 11:25:59;;;;;;;3.03;2.60;;;5.50;83.50;;;;;;4999103;28;20030;-87
2020/12/31 11:28:34;;;;;;;2.13;1.92;;;5.60;83.40;;;;;;5001035;28;20079;-93
2020/12/31 11:31:00;;;;;;;2.53;2.20;;;5.70;83.10;;;;;;5001678;28;20036;-92
2020/12/31 11:33:44;;;;;;;2.40;2.20;;;5.80;82.90;;;;;;5001298;28;20034;-92
2020/12/31 11:36:22;;;;;;;2.60;2.40;;;5.80;82.80;;;;;;5001455;28;20384;-92
2020/12/31 11:39:34;;;;;;;;;;;;;;;;;;;;;
2020/12/31 11:45:06;;;;;;;3.17;2.80;;;5.90;82.30;;;;;;4988680;28;20061;-94
2020/12/31 11:47:32;;;;;;;4.22;2.90;;;6.10;82.20;;;;;;4988625;28;20023;-90
2020/12/31 11:50:19;;;;;;;2.10;1.90;;;6.10;82.10;;;;;;4980339;28;20090;-90
2020/12/31 12:00:17;;;;;;;2.20;1.88;;;6.30;82.00;;;;;;4960258;29;20096;-95
2020/12/31 12:03:33;;;;;;;;;;;;;;;;;;;;;
2020/12/31 12:06:08;;;;;;;2.58;2.15;;;6.20;81.80;;;;;;5001711;28;20092;-92
2020/12/31 12:09:09;;;;;;;;;;;;;;;;;;;;;
2020/12/31 12:14:58;;;;;;;3.30;2.60;;;6.30;81.80;;;;;;4974627;28;20031;-91
2020/12/31 12:17:27;;;;;;;2.70;2.42;;;6.40;81.90;;;;;;4971206;28;20034;-90
2020/12/31 12:20:15;;;;;;;2.70;2.40;;;6.40;81.90;;;;;;5000998;28;20042;-90
2020/12/31 12:22:45;;;;;;;3.13;2.10;;;6.30;81.80;;;;;;4998788;28;20115;-93
2020/12/31 12:25:20;;;;;;;2.67;2.20;;;6.30;81.90;;;;;;4995123;28;20046;-92
2020/12/31 12:28:13;;;;;;;;;;;;;;;;;;;;;
2020/12/31 12:30:39;;;;;;;3.55;2.80;;;6.30;82.00;;;;;;4991521;28;20087;-92
2020/12/31 12:33:05;;;;;;;2.10;1.92;;;6.20;82.00;;;;;;5001300;28;20049;-90
2020/12/31 12:35:33;;;;;;;3.17;2.38;;;6.30;82.00;;;;;;5002818;28;20015;-91
2020/12/31 12:41:12;;;;;;;4.90;3.33;;;6.30;81.90;;;;;;4994693;28;20072;-91
2020/12/31 12:46:49;;;;;;;4.03;2.67;;;6.10;81.80;;;;;;4991462;28;19972;-92
2020/12/31 12:49:45;;;;;;;;;;;;;;;;;;;;;
2020/12/31 12:55:17;;;;;;;5.15;3.50;;;6.00;82.10;;;;;;4988661;28;20096;-91
2020/12/31 12:58:09;;;;;;;4.32;3.35;;;6.10;82.30;;;;;;4998407;28;20042;-91
2020/12/31 13:00:37;;;;;;;5.53;3.60;;;6.10;82.30;;;;;;5000137;28;20031;-92
2020/12/31 13:03:13;;;;;;;;;;;;;;;;;;;;;
2020/12/31 13:05:56;;;;;;;5.38;3.28;;;6.00;82.30;;;;;;4981530;28;20041;-91
2020/12/31 13:08:27;;;;;;;6.25;4.22;;;6.00;82.20;;;;;;4989985;28;20025;-91
2020/12/31 13:11:21;;;;;;;;;;;;;;;;;;;;;
2020/12/31 13:13:48;;;;;;;7.18;4.57;;;6.10;82.10;;;;;;4984527;28;20448;-91
2020/12/31 13:16:32;;;;;;;7.82;4.57;;;6.00;82.10;;;;;;4987417;28;20090;-91
2020/12/31 13:19:00;;;;;;;7.82;5.82;;;6.10;82.20;;;;;;4987306;28;20032;-91
2020/12/31 13:22:53;;;;;;;;;;;;;;;;;;;;;
2020/12/31 13:25:20;;;;;;;;;;;;;;;;;;;;;
2020/12/31 13:27:54;;;;;;;10.55;5.65;;;5.90;82.00;;;;;;4982652;28;20042;-91
2020/12/31 13:30:20;;;;;;;9.93;5.97;;;6.00;82.10;;;;;;4987568;28;20031;-91
2020/12/31 13:32:49;;;;;;;13.32;7.53;;;6.00;82.00;;;;;;4991251;28;20114;-90
2020/12/31 13:35:19;;;;;;;11.50;6.80;;;6.00;82.00;;;;;;4986115;28;20057;-91
2020/12/31 13:37:45;;;;;;;14.55;8.32;;;6.00;81.90;;;;;;4987173;28;20025;-92
2020/12/31 13:40:23;;;;;;;18.92;10.07;;;6.00;81.90;;;;;;4984422;28;20062;-92
2020/12/31 13:42:59;;;;;;;17.77;9.38;;;6.00;81.80;;;;;;4988075;28;20026;-91
2020/12/31 13:45:25;;;;;;;11.45;6.95;;;6.00;81.90;;;;;;4987766;28;20011;-92